createdAt,value
2019-02-11T00:00:58.161Z,97888.91
2019-02-11T00:03:24.380Z,97904.73
2019-02-11T00:05:50.575Z,97883.84
2019-02-11T00:08:16.736Z,97874.16
2019-02-11T00:10:42.975Z,97898.17
2019-02-11T00:13:10.750Z,97907.56
2019-02-11T00:15:37.275Z,97908.37
2019-02-11T00:18:03.485Z,97896.52
2019-02-11T00:20:31.134Z,97896.19
2019-02-11T00:22:57.365Z,97898.17
2019-02-11T00:25:23.547Z,97911.34
2019-02-11T00:27:50.179Z,97912.16
2019-02-11T00:30:16.444Z,97910.20
2019-02-11T00:32:42.721Z,97902.94
2019-02-11T00:35:09.040Z,97908.20
2019-02-11T00:37:35.263Z,97909.90
2019-02-11T00:40:01.445Z,97890.48
2019-02-11T00:42:27.828Z,97921.73
2019-02-11T00:44:54.076Z,97915.17
2019-02-11T00:47:20.279Z,97922.23
2019-02-11T00:49:46.502Z,97929.47
2019-02-11T00:52:12.787Z,97951.37
2019-02-11T00:54:38.957Z,97942.33
2019-02-11T00:57:05.173Z,97949.88
2019-02-11T00:59:31.405Z,97938.84
2019-02-11T01:01:59.727Z,97960.55
2019-02-11T01:04:25.924Z,97977.00
2019-02-11T01:06:52.137Z,97954.49
2019-02-11T01:09:18.738Z,97966.50
2019-02-11T01:11:44.994Z,97963.72
2019-02-11T01:14:11.168Z,97974.93
2019-02-11T01:16:37.789Z,97972.81
2019-02-11T01:19:03.985Z,97991.74
2019-02-11T01:21:30.240Z,97989.14
2019-02-11T01:23:56.442Z,97996.05
2019-02-11T01:26:22.658Z,97992.29
2019-02-11T01:28:48.849Z,98002.32
2019-02-11T01:31:15.632Z,98011.01
2019-02-11T01:33:41.832Z,98006.25
2019-02-11T01:36:08.074Z,97998.55
2019-02-11T01:38:34.517Z,97997.25
2019-02-11T01:41:00.802Z,97974.23
2019-02-11T01:43:26.965Z,97987.76
2019-02-11T01:45:53.160Z,97989.26
2019-02-11T01:48:19.347Z,97986.45
2019-02-11T01:50:45.555Z,97993.71
2019-02-11T01:53:11.750Z,97996.00
2019-02-11T01:55:37.950Z,98001.12
2019-02-11T01:58:04.140Z,97995.55
2019-02-11T02:00:30.355Z,98013.63
2019-02-11T02:02:56.547Z,98019.70
2019-02-11T02:05:22.709Z,98040.91
2019-02-11T02:07:48.936Z,98047.03
2019-02-11T02:10:15.104Z,98063.77
2019-02-11T02:12:41.330Z,98072.97
2019-02-11T02:15:11.660Z,98079.72
2019-02-11T02:17:37.893Z,98079.72
2019-02-11T02:20:11.312Z,98092.66
2019-02-11T02:22:37.610Z,98107.44
2019-02-11T02:25:06.853Z,98105.94
2019-02-11T02:27:33.044Z,98110.70
2019-02-11T02:29:59.292Z,98109.36
2019-02-11T02:32:25.713Z,98103.44
2019-02-11T02:34:51.897Z,98108.20
2019-02-11T02:37:18.088Z,98108.83
2019-02-11T02:39:44.276Z,98114.53
2019-02-11T02:42:10.452Z,98102.68
2019-02-11T02:44:36.643Z,98104.80
2019-02-11T02:47:02.796Z,98124.77
2019-02-11T02:49:28.987Z,98112.59
2019-02-11T02:51:55.190Z,98124.84
2019-02-11T02:54:21.378Z,98129.92
2019-02-11T02:56:47.586Z,98141.82
2019-02-11T02:59:13.744Z,98144.58
2019-02-11T03:01:39.957Z,98154.36
2019-02-11T03:04:06.173Z,98138.25
2019-02-11T03:06:32.342Z,98163.79
2019-02-11T03:08:58.638Z,98147.52
2019-02-11T03:11:24.812Z,98158.75
2019-02-11T03:13:51.039Z,98173.27
2019-02-11T03:16:17.652Z,98183.22
2019-02-11T03:18:43.851Z,98169.43
2019-02-11T03:21:10.034Z,98181.50
2019-02-11T03:23:36.234Z,98196.99
2019-02-11T03:26:02.397Z,98206.12
2019-02-11T03:28:28.611Z,98207.70
2019-02-11T03:30:54.877Z,98219.27
2019-02-11T03:33:21.059Z,98211.50
2019-02-11T03:35:47.209Z,98238.67
2019-02-11T03:38:13.375Z,98245.01
2019-02-11T03:40:39.579Z,98235.78
2019-02-11T03:43:05.738Z,98253.60
2019-02-11T03:45:31.939Z,98261.59
2019-02-11T03:47:58.144Z,98274.30
2019-02-11T03:50:24.674Z,98281.31
2019-02-11T03:52:50.882Z,98291.92
2019-02-11T03:55:17.112Z,98312.19
2019-02-11T03:57:43.325Z,98322.17
2019-02-11T04:00:10.527Z,98322.80
2019-02-11T04:02:36.704Z,98339.29
2019-02-11T04:05:05.024Z,98353.16
2019-02-11T04:07:31.277Z,98361.80
2019-02-11T04:09:57.467Z,98374.86
2019-02-11T04:12:23.655Z,98366.77
2019-02-11T04:14:49.853Z,98382.25
2019-02-11T04:17:16.123Z,98384.92
2019-02-11T04:19:42.323Z,98375.23
2019-02-11T04:22:08.703Z,98369.80
2019-02-11T04:24:34.901Z,98374.52
2019-02-11T04:27:01.090Z,98386.70
2019-02-11T04:29:27.306Z,98381.27
2019-02-11T04:31:53.463Z,98408.38
2019-02-11T04:34:19.715Z,98403.97
2019-02-11T04:36:45.863Z,98395.14
2019-02-11T04:39:12.161Z,98408.09
2019-02-11T04:41:38.337Z,98427.92
2019-02-11T04:44:05.120Z,98429.95
2019-02-11T04:46:31.275Z,98432.81
2019-02-11T04:49:00.507Z,98445.13
2019-02-11T04:51:26.683Z,98444.91
2019-02-11T04:53:52.956Z,98470.67
2019-02-11T04:56:19.133Z,98470.13
2019-02-11T04:58:45.325Z,98493.27
2019-02-11T05:01:11.794Z,98493.84
2019-02-11T05:03:38.011Z,98502.09
2019-02-11T05:06:04.169Z,98502.62
2019-02-11T05:08:30.380Z,98502.41
2019-02-11T05:10:56.566Z,98506.17
2019-02-11T05:13:23.040Z,98507.84
2019-02-11T05:15:49.240Z,98516.56
2019-02-11T05:18:16.915Z,98517.13
2019-02-11T05:20:44.905Z,98532.25
2019-02-11T05:23:11.547Z,98527.70
2019-02-11T05:25:37.750Z,98531.22
2019-02-11T05:28:04.228Z,98544.65
2019-02-11T05:30:30.610Z,98542.36
2019-02-11T05:32:57.124Z,98539.90
2019-02-11T05:35:23.631Z,98537.15
2019-02-11T05:37:49.796Z,98552.09
2019-02-11T05:40:16.111Z,98559.13
2019-02-11T05:42:42.309Z,98563.59
2019-02-11T05:45:09.120Z,98579.67
2019-02-11T05:47:35.291Z,98573.29
2019-02-11T05:50:03.008Z,98592.48
2019-02-11T05:52:29.212Z,98593.50
2019-02-11T05:54:55.407Z,98592.85
2019-02-11T05:57:21.606Z,98617.62
2019-02-11T05:59:48.134Z,98620.97
2019-02-11T06:02:16.514Z,98625.23
2019-02-11T06:04:42.863Z,98628.55
2019-02-11T06:07:09.012Z,98627.39
2019-02-11T06:09:35.200Z,98630.02
2019-02-11T06:12:01.368Z,98634.44
2019-02-11T06:14:27.549Z,98652.83
2019-02-11T06:16:53.741Z,98638.61
2019-02-11T06:19:19.949Z,98655.65
2019-02-11T06:21:46.100Z,98675.97
2019-02-11T06:24:12.318Z,98688.25
2019-02-11T06:26:38.510Z,98690.87
2019-02-11T06:29:04.813Z,98694.59
2019-02-11T06:31:30.989Z,98709.47
2019-02-11T06:33:57.193Z,98712.25
2019-02-11T06:36:23.695Z,98719.79
2019-02-11T06:38:49.857Z,98726.34
2019-02-11T06:41:16.098Z,98737.65
2019-02-11T06:43:42.275Z,98739.28
2019-02-11T06:46:10.370Z,98745.80
2019-02-11T06:48:39.581Z,98745.92
2019-02-11T06:51:11.662Z,98753.28
2019-02-11T06:53:37.924Z,98749.32
2019-02-11T06:56:04.150Z,98748.01
2019-02-11T06:58:31.390Z,98767.38
2019-02-11T07:01:00.589Z,98769.05
2019-02-11T07:03:26.744Z,98770.73
2019-02-11T07:05:52.972Z,98787.61
2019-02-11T07:08:19.157Z,98786.84
2019-02-11T07:10:45.416Z,98786.05
2019-02-11T07:13:11.583Z,98793.42
2019-02-11T07:15:40.786Z,98795.64
2019-02-11T07:18:06.976Z,98806.63
2019-02-11T07:20:34.066Z,98804.54
2019-02-11T07:23:00.247Z,98788.03
2019-02-11T07:25:29.681Z,98825.39
2019-02-11T07:27:56.117Z,98827.23
2019-02-11T07:30:22.873Z,98831.05
2019-02-11T07:32:49.072Z,98842.69
2019-02-11T07:35:15.353Z,98851.53
2019-02-11T07:37:41.530Z,98860.38
2019-02-11T07:40:10.211Z,98847.11
2019-02-11T07:42:44.008Z,98861.20
2019-02-11T07:45:12.227Z,98862.89
2019-02-11T07:47:38.409Z,98861.45
2019-02-11T07:50:05.404Z,98867.11
2019-02-11T07:52:31.577Z,98879.00
2019-02-11T07:54:59.759Z,98863.88
2019-02-11T07:57:25.995Z,98868.56
2019-02-11T07:59:52.654Z,98870.03
2019-02-11T08:02:19.038Z,98870.81
2019-02-11T08:04:45.303Z,98887.87
2019-02-11T08:07:11.839Z,98888.35
2019-02-11T08:09:38.130Z,98887.41
2019-02-11T08:12:05.631Z,98890.42
2019-02-11T08:14:35.917Z,98892.75
2019-02-11T08:17:02.126Z,98898.67
2019-02-11T08:19:28.651Z,98906.69
2019-02-11T08:21:55.046Z,98906.99
2019-02-11T08:24:21.521Z,98911.86
2019-02-11T08:26:47.706Z,98918.66
2019-02-11T08:29:13.896Z,98934.95
2019-02-11T08:31:40.074Z,98927.42
2019-02-11T08:34:06.267Z,98942.37
2019-02-11T08:36:32.577Z,98947.56
2019-02-11T08:38:58.997Z,98951.97
2019-02-11T08:41:25.169Z,98965.20
2019-02-11T08:43:51.383Z,98962.21
2019-02-11T08:46:17.557Z,98974.53
2019-02-11T08:48:43.729Z,98963.89
2019-02-11T08:51:11.597Z,98961.27
2019-02-11T08:53:37.763Z,98958.80
2019-02-11T08:56:03.956Z,98959.16
2019-02-11T08:58:30.123Z,98973.16
2019-02-11T09:00:56.318Z,98957.45
2019-02-11T09:03:22.506Z,98971.30
2019-02-11T09:05:48.827Z,98989.27
2019-02-11T09:08:14.982Z,98987.49
2019-02-11T09:10:41.181Z,98987.49
2019-02-11T09:13:07.354Z,98995.25
2019-02-11T09:15:33.722Z,98991.02
2019-02-11T09:17:59.886Z,99011.59
2019-02-11T09:20:26.353Z,99007.28
2019-02-11T09:22:52.511Z,99018.72
2019-02-11T09:25:18.767Z,99022.50
2019-02-11T09:27:44.936Z,99027.14
2019-02-11T09:30:14.956Z,99031.50
2019-02-11T09:32:41.122Z,99039.80
2019-02-11T09:35:07.419Z,99042.09
2019-02-11T09:37:33.604Z,99045.22
2019-02-11T09:39:59.800Z,99052.65
2019-02-11T09:42:25.954Z,99064.69
2019-02-11T09:44:52.128Z,99068.53
2019-02-11T09:47:18.552Z,99065.99
2019-02-11T09:49:53.018Z,99067.14
2019-02-11T09:52:19.177Z,99071.31
2019-02-11T09:54:45.720Z,99069.33
2019-02-11T09:57:11.945Z,99084.58
2019-02-11T09:59:38.119Z,99083.84
2019-02-11T10:02:06.018Z,99076.00
2019-02-11T10:04:32.249Z,99082.31
2019-02-11T10:06:58.734Z,99093.42
2019-02-11T10:09:24.933Z,99101.37
2019-02-11T10:11:51.131Z,99107.22
2019-02-11T10:14:17.324Z,99113.09
2019-02-11T10:16:43.499Z,99105.59
2019-02-11T10:19:09.659Z,99115.98
2019-02-11T10:21:35.860Z,99112.27
2019-02-11T10:24:02.137Z,99119.25
2019-02-11T10:26:28.344Z,99130.91
2019-02-11T10:28:54.513Z,99124.97
2019-02-11T10:31:20.703Z,99135.50
2019-02-11T10:33:46.981Z,99143.66
2019-02-11T10:36:14.369Z,99145.16
2019-02-11T10:38:40.551Z,99144.89
2019-02-11T10:41:08.640Z,99155.67
2019-02-11T10:43:34.848Z,99150.06
2019-02-11T10:46:01.053Z,99167.55
2019-02-11T10:48:27.219Z,99170.62
2019-02-11T10:50:53.746Z,99168.13
2019-02-11T10:53:20.176Z,99169.09
2019-02-11T10:55:46.404Z,99167.48
2019-02-11T10:58:12.682Z,99171.78
2019-02-11T11:00:39.066Z,99178.58
2019-02-11T11:03:05.368Z,99183.70
2019-02-11T11:05:31.543Z,99177.97
2019-02-11T11:07:57.704Z,99149.47
2019-02-11T11:10:38.408Z,99166.70
2019-02-11T11:13:04.572Z,99174.92
2019-02-11T11:15:30.754Z,99169.11
2019-02-11T11:17:57.319Z,99176.92
2019-02-11T11:20:24.247Z,99183.39
2019-02-11T11:22:50.730Z,99186.12
2019-02-11T11:25:17.614Z,99191.16
2019-02-11T11:27:43.979Z,99188.70
2019-02-11T11:30:17.229Z,99184.59
2019-02-11T11:32:44.309Z,99189.35
2019-02-11T11:35:12.502Z,99186.55
2019-02-11T11:37:38.693Z,99186.82
2019-02-11T11:40:13.242Z,99181.17
2019-02-11T11:42:39.405Z,99188.67
2019-02-11T11:45:10.614Z,99203.92
2019-02-11T11:47:36.811Z,99200.05
2019-02-11T11:50:05.394Z,99199.98
2019-02-11T11:52:31.590Z,99215.60
2019-02-11T11:54:57.866Z,99222.83
2019-02-11T11:57:24.172Z,99219.70
2019-02-11T11:59:54.776Z,99211.23
2019-02-11T12:02:20.993Z,99210.61
2019-02-11T12:04:47.248Z,99227.75
2019-02-11T12:07:15.788Z,99247.05
2019-02-11T12:09:43.899Z,99242.98
2019-02-11T12:12:13.037Z,99243.22
2019-02-11T12:14:38.502Z,99266.80
2019-02-11T12:17:04.763Z,99268.38
2019-02-11T12:19:30.945Z,99280.71
2019-02-11T12:21:57.188Z,99299.84
2019-02-11T12:24:23.381Z,99300.84
2019-02-11T12:26:49.612Z,99345.19
2019-02-11T12:29:15.782Z,99332.55
2019-02-11T12:31:42.050Z,99341.48
2019-02-11T12:34:08.269Z,99356.94
2019-02-11T12:36:34.513Z,99344.27
2019-02-11T12:39:00.654Z,99362.13
2019-02-11T12:41:26.904Z,99353.86
2019-02-11T12:43:53.099Z,99341.34
2019-02-11T12:46:19.345Z,99354.95
2019-02-11T12:48:45.525Z,99358.06
2019-02-11T12:51:11.723Z,99357.33
2019-02-11T12:53:37.881Z,99361.89
2019-02-11T12:56:04.141Z,99366.50
2019-02-11T12:58:30.832Z,99361.05
2019-02-11T13:00:57.041Z,99367.03
2019-02-11T13:03:23.223Z,99367.17
2019-02-11T13:05:49.396Z,99382.70
2019-02-11T13:08:15.626Z,99371.86
2019-02-11T13:10:41.853Z,99376.93
2019-02-11T13:13:08.066Z,99366.91
2019-02-11T13:15:57.390Z,99334.64
2019-02-11T13:18:02.624Z,99376.37
2019-02-11T13:20:28.879Z,99376.03
2019-02-11T13:22:55.283Z,99398.73
2019-02-11T13:25:21.478Z,99428.02
2019-02-11T13:27:47.756Z,99419.13
2019-02-11T13:30:24.535Z,99395.84
2019-02-11T13:32:50.747Z,99416.30
2019-02-11T13:35:18.397Z,99427.88
2019-02-11T13:37:44.792Z,99415.34
2019-02-11T13:40:11.254Z,99430.60
2019-02-11T13:42:37.468Z,99435.87
2019-02-11T13:45:13.924Z,99446.91
2019-02-11T13:47:53.471Z,99445.59
2019-02-11T13:50:13.388Z,99461.50
2019-02-11T13:52:39.621Z,99452.48
2019-02-11T13:55:07.285Z,99456.89
2019-02-11T13:57:34.667Z,99465.84
2019-02-11T14:00:00.984Z,99461.89
2019-02-11T14:02:27.242Z,99470.00
2019-02-11T14:04:53.519Z,99482.59
2019-02-11T14:07:19.999Z,99483.78
2019-02-11T14:09:46.175Z,99489.84
2019-02-11T14:12:13.191Z,99486.48
2019-02-11T14:14:39.370Z,99495.35
2019-02-11T14:17:05.563Z,99503.28
2019-02-11T14:19:31.818Z,99500.61
2019-02-11T14:21:58.093Z,99508.66
2019-02-11T14:24:24.418Z,99513.32
2019-02-11T14:26:51.896Z,99515.71
2019-02-11T14:29:18.777Z,99510.50
2019-02-11T14:31:45.076Z,99511.47
2019-02-11T14:34:11.476Z,99528.63
2019-02-11T14:36:37.744Z,99521.57
2019-02-11T14:39:10.069Z,99522.59
2019-02-11T14:41:36.273Z,99535.48
2019-02-11T14:44:02.536Z,99538.93
2019-02-11T14:46:28.728Z,99545.47
2019-02-11T14:48:55.160Z,99556.61
2019-02-11T14:51:21.393Z,99552.88
2019-02-11T14:53:47.894Z,99561.16
2019-02-11T14:56:14.447Z,99557.82
2019-02-11T14:58:40.604Z,99552.72
2019-02-11T15:01:06.862Z,99562.63
2019-02-11T15:03:32.990Z,99567.15
2019-02-11T15:05:59.231Z,99593.22
2019-02-11T15:08:25.419Z,99588.25
2019-02-11T15:10:51.633Z,99593.17
2019-02-11T15:13:17.795Z,99590.53
2019-02-11T15:15:44.038Z,99603.49
2019-02-11T15:18:10.501Z,99610.16
2019-02-11T15:20:36.685Z,99617.16
2019-02-11T15:23:03.082Z,99623.34
2019-02-11T15:25:29.259Z,99610.08
2019-02-11T15:27:55.464Z,99623.84
2019-02-11T15:30:21.678Z,99630.25
2019-02-11T15:32:47.945Z,99629.05
2019-02-11T15:35:14.217Z,99639.39
2019-02-11T15:37:40.521Z,99640.98
2019-02-11T15:40:11.096Z,99653.46
2019-02-11T15:42:37.329Z,99655.06
2019-02-11T15:45:08.418Z,99656.36
2019-02-11T15:47:34.648Z,99673.64
2019-02-11T15:50:00.826Z,99678.77
2019-02-11T15:52:27.068Z,99684.16
2019-02-11T15:54:53.254Z,99698.96
2019-02-11T15:57:19.510Z,99701.17
2019-02-11T15:59:45.679Z,99705.22
2019-02-11T16:02:12.366Z,99713.45
2019-02-11T16:04:39.081Z,99719.36
2019-02-11T16:07:05.554Z,99724.59
2019-02-11T16:09:31.746Z,99731.32
2019-02-11T16:11:57.999Z,99733.74
2019-02-11T16:14:24.567Z,99737.58
2019-02-11T16:16:50.814Z,99734.84
2019-02-11T16:19:16.982Z,99742.72
2019-02-11T16:21:43.196Z,99738.76
2019-02-11T16:24:09.570Z,99749.37
2019-02-11T16:26:35.943Z,99764.64
2019-02-11T16:29:02.104Z,99778.94
2019-02-11T16:31:28.339Z,99793.94
2019-02-11T16:33:54.792Z,99804.45
2019-02-11T16:36:21.087Z,99803.56
2019-02-11T16:38:47.267Z,99808.75
2019-02-11T16:41:13.451Z,99822.73
2019-02-11T16:43:39.681Z,99824.52
2019-02-11T16:46:07.279Z,99832.22
2019-02-11T16:48:33.605Z,99848.95
2019-02-11T16:50:59.763Z,99855.13
2019-02-11T16:53:26.029Z,99850.00
2019-02-11T16:55:52.192Z,99858.99
2019-02-11T16:58:18.426Z,99860.11
2019-02-11T17:00:44.630Z,99858.90
2019-02-11T17:03:10.874Z,99873.80
2019-02-11T17:05:37.059Z,99869.69
2019-02-11T17:08:03.619Z,99879.33
2019-02-11T17:10:29.780Z,99889.60
2019-02-11T17:12:55.999Z,99892.97
2019-02-11T17:15:22.243Z,99894.98
2019-02-11T17:17:48.931Z,99905.05
2019-02-11T17:20:15.554Z,99929.23
2019-02-11T17:22:42.281Z,99934.06
2019-02-11T17:25:09.899Z,99947.27
2019-02-11T17:27:37.556Z,99946.45
2019-02-11T17:30:16.919Z,99948.82
2019-02-11T17:32:43.136Z,99959.62
2019-02-11T17:35:09.797Z,99967.58
2019-02-11T17:37:36.029Z,99976.13
2019-02-11T17:40:11.923Z,99985.20
2019-02-11T17:42:38.866Z,99992.52
2019-02-11T17:45:24.360Z,99996.92
2019-02-11T17:47:50.614Z,99985.22
2019-02-11T17:50:16.766Z,100001.73
2019-02-11T17:52:43.222Z,100008.03
2019-02-11T17:55:12.567Z,100012.82
2019-02-11T17:57:45.337Z,100007.72
2019-02-11T18:00:52.084Z,100014.69
2019-02-11T18:03:19.522Z,100030.80
2019-02-11T18:05:45.636Z,100042.99
2019-02-11T18:08:11.990Z,100049.11
2019-02-11T18:10:38.162Z,100063.97
2019-02-11T18:13:04.401Z,100070.27
2019-02-11T18:15:30.588Z,100077.45
2019-02-11T18:17:56.936Z,100075.75
2019-02-11T18:20:23.106Z,100083.03
2019-02-11T18:22:49.310Z,100077.08
2019-02-11T18:25:16.223Z,100082.97
2019-02-11T18:27:42.978Z,100087.73
2019-02-11T18:30:14.197Z,100088.23
2019-02-11T18:32:40.464Z,100089.62
2019-02-11T18:35:19.791Z,100096.22
2019-02-11T18:37:45.979Z,100106.13
2019-02-11T18:40:13.901Z,100112.16
2019-02-11T18:42:40.199Z,100115.17
2019-02-11T18:45:12.734Z,100125.17
2019-02-11T18:47:39.252Z,100113.56
2019-02-11T18:50:14.727Z,100119.16
2019-02-11T18:52:41.140Z,100137.05
2019-02-11T18:55:11.615Z,100140.55
2019-02-11T18:57:38.226Z,100137.27
2019-02-11T19:00:11.415Z,100157.38
2019-02-11T19:02:38.125Z,100161.16
2019-02-11T19:05:04.925Z,100162.02
2019-02-11T19:07:31.142Z,100163.59
2019-02-11T19:09:57.395Z,100176.31
2019-02-11T19:12:25.672Z,100174.84
2019-02-11T19:14:52.120Z,100186.72
2019-02-11T19:17:18.604Z,100183.44
2019-02-11T19:19:44.874Z,100193.82
2019-02-11T19:22:12.017Z,100189.38
2019-02-11T19:24:38.564Z,100193.08
2019-02-11T19:27:07.602Z,100195.77
2019-02-11T19:29:33.840Z,100211.23
2019-02-11T19:32:00.094Z,100213.67
2019-02-11T19:34:26.297Z,100228.95
2019-02-11T19:36:53.330Z,100225.99
2019-02-11T19:39:19.523Z,100242.38
2019-02-11T19:41:49.571Z,100236.11
2019-02-11T19:44:15.770Z,100250.63
2019-02-11T19:46:42.028Z,100260.28
2019-02-11T19:49:08.211Z,100269.86
2019-02-11T19:51:34.721Z,100267.36
2019-02-11T19:54:00.961Z,100283.11
2019-02-11T19:56:27.360Z,100276.97
2019-02-11T19:58:53.691Z,100274.47
2019-02-11T20:01:20.036Z,100289.48
2019-02-11T20:03:46.263Z,100277.68
2019-02-11T20:06:12.497Z,100298.06
2019-02-11T20:08:38.719Z,100303.08
2019-02-11T20:11:04.926Z,100317.91
2019-02-11T20:13:31.819Z,100303.91
2019-02-11T20:15:58.063Z,100298.43
2019-02-11T20:18:24.295Z,100315.83
2019-02-11T20:20:50.500Z,100322.10
2019-02-11T20:23:17.124Z,100332.16
2019-02-11T20:25:43.650Z,100329.53
2019-02-11T20:28:09.965Z,100321.91
2019-02-11T20:30:36.245Z,100334.61
2019-02-11T20:33:04.513Z,100334.55
2019-02-11T20:35:30.849Z,100330.03
2019-02-11T20:37:58.870Z,100333.43
2019-02-11T20:40:27.786Z,100341.83
2019-02-11T20:42:54.113Z,100344.33
2019-02-11T20:45:29.878Z,100348.34
2019-02-11T20:47:56.280Z,100330.89
2019-02-11T20:50:22.442Z,100355.46
2019-02-11T20:52:48.741Z,100364.89
2019-02-11T20:55:15.403Z,100367.50
2019-02-11T20:57:43.635Z,100369.27
2019-02-11T21:00:17.489Z,100374.64
2019-02-11T21:02:43.755Z,100367.70
2019-02-11T21:05:10.684Z,100383.56
2019-02-11T21:07:37.010Z,100390.91
2019-02-11T21:10:08.760Z,100385.39
2019-02-11T21:12:35.439Z,100401.30
2019-02-11T21:15:01.757Z,100406.72
2019-02-11T21:17:28.023Z,100400.52
2019-02-11T21:19:54.590Z,100418.86
2019-02-11T21:22:21.079Z,100421.20
2019-02-11T21:24:47.341Z,100420.08
2019-02-11T21:27:13.575Z,100426.19
2019-02-11T21:29:39.813Z,100426.87
2019-02-11T21:32:12.495Z,100428.06
2019-02-11T21:34:38.727Z,100426.45
2019-02-11T21:37:05.273Z,100432.23
2019-02-11T21:39:32.223Z,100431.62
2019-02-11T21:41:58.406Z,100439.36
2019-02-11T21:44:24.632Z,100439.11
2019-02-11T21:46:50.788Z,100444.67
2019-02-11T21:49:17.011Z,100445.55
2019-02-11T21:51:43.193Z,100458.48
2019-02-11T21:54:09.442Z,100463.44
2019-02-11T21:56:36.042Z,100464.97
2019-02-11T21:59:02.313Z,100466.88
2019-02-11T22:01:29.081Z,100466.16
2019-02-11T22:03:55.280Z,100471.77
2019-02-11T22:06:21.456Z,100462.98
2019-02-11T22:08:47.686Z,100468.16
2019-02-11T22:11:13.870Z,100467.56
2019-02-11T22:13:46.244Z,100465.98
2019-02-11T22:16:13.116Z,100453.51
2019-02-11T22:18:39.629Z,100460.01
2019-02-11T22:21:06.574Z,100464.55
2019-02-11T22:23:32.788Z,100457.36
2019-02-11T22:26:05.148Z,100456.47
2019-02-11T22:28:31.664Z,100456.76
2019-02-11T22:30:58.225Z,100472.80
2019-02-11T22:33:24.401Z,100473.98
2019-02-11T22:35:53.372Z,100479.47
2019-02-11T22:38:19.898Z,100472.31
2019-02-11T22:40:46.412Z,100488.28
2019-02-11T22:43:12.617Z,100488.33
2019-02-11T22:45:39.103Z,100483.79
2019-02-11T22:48:05.647Z,100495.20
2019-02-11T22:50:31.841Z,100501.96
2019-02-11T22:52:58.013Z,100502.68
2019-02-11T22:55:24.256Z,100524.34
2019-02-11T22:57:50.458Z,100522.66
2019-02-11T23:00:26.514Z,100520.53
2019-02-11T23:02:52.781Z,100517.34
2019-02-11T23:05:18.978Z,100528.66
2019-02-11T23:07:45.173Z,100531.44
2019-02-11T23:10:11.774Z,100536.13
2019-02-11T23:12:37.982Z,100543.85
2019-02-11T23:15:07.267Z,100553.00
2019-02-11T23:17:33.485Z,100553.98
2019-02-11T23:20:00.849Z,100556.91
2019-02-11T23:22:32.732Z,100554.39
2019-02-11T23:24:58.996Z,100565.73
2019-02-11T23:27:25.167Z,100556.78
2019-02-11T23:29:51.403Z,100557.56
2019-02-11T23:32:17.574Z,100564.48
2019-02-11T23:34:43.936Z,100566.14
2019-02-11T23:37:10.121Z,100575.52
2019-02-11T23:39:36.304Z,100579.09
2019-02-11T23:42:02.565Z,100588.91
2019-02-11T23:44:28.737Z,100585.91
2019-02-11T23:46:54.896Z,100590.82
2019-02-11T23:49:21.070Z,100583.95
2019-02-11T23:51:47.260Z,100567.25
2019-02-11T23:54:13.493Z,100577.17
2019-02-11T23:56:39.677Z,100578.23
2019-02-11T23:59:05.876Z,100584.03
